sensor_id;sensor_type;location;lat;lon;timestamp;P1;durP1;ratioP1;P2;durP2;ratioP2
69047;SDS011;56119;50.118;8.642;2023-08-30T00:02:06;7.38;;;4.60;;
69047;SDS011;56119;50.118;8.642;2023-08-30T00:04:33;6.88;;;4.40;;
69047;SDS011;56119;50.118;8.642;2023-08-30T00:06:59;5.95;;;4.95;;
69047;SDS011;56119;50.118;8.642;2023-08-30T00:09:25;6.15;;;4.57;;
69047;SDS011;56119;50.118;8.642;2023-08-30T00:11:51;6.03;;;4.95;;
69047;SDS011;56119;50.118;8.642;2023-08-30T00:14:17;6.68;;;4.80;;
69047;SDS011;56119;50.118;8.642;2023-08-30T00:16:43;5.78;;;4.32;;
69047;SDS011;56119;50.118;8.642;2023-08-30T00:19:09;5.70;;;4.18;;
69047;SDS011;56119;50.118;8.642;2023-08-30T00:21:35;7.63;;;4.78;;
69047;SDS011;56119;50.118;8.642;2023-08-30T00:24:01;7.38;;;4.18;;
69047;SDS011;56119;50.118;8.642;2023-08-30T00:26:27;7.65;;;4.65;;
69047;SDS011;56119;50.118;8.642;2023-08-30T00:28:53;6.28;;;4.60;;
69047;SDS011;56119;50.118;8.642;2023-08-30T00:31:18;6.18;;;4.40;;
69047;SDS011;56119;50.118;8.642;2023-08-30T00:33:44;5.75;;;4.07;;
69047;SDS011;56119;50.118;8.642;2023-08-30T00:36:10;6.38;;;4.32;;
69047;SDS011;56119;50.118;8.642;2023-08-30T00:38:36;4.88;;;4.25;;
69047;SDS011;56119;50.118;8.642;2023-08-30T00:41:02;6.35;;;4.32;;
69047;SDS011;56119;50.118;8.642;2023-08-30T00:43:28;5.78;;;4.10;;
69047;SDS011;56119;50.118;8.642;2023-08-30T00:45:54;5.80;;;4.50;;
69047;SDS011;56119;50.118;8.642;2023-08-30T00:48:20;10.20;;;5.05;;
69047;SDS011;56119;50.118;8.642;2023-08-30T00:50:47;6.30;;;4.60;;
69047;SDS011;56119;50.118;8.642;2023-08-30T00:53:13;6.63;;;4.40;;
69047;SDS011;56119;50.118;8.642;2023-08-30T00:55:39;10.75;;;4.40;;
69047;SDS011;56119;50.118;8.642;2023-08-30T00:58:05;7.20;;;4.50;;
69047;SDS011;56119;50.118;8.642;2023-08-30T01:00:31;6.13;;;4.40;;
69047;SDS011;56119;50.118;8.642;2023-08-30T01:02:58;6.75;;;4.20;;
69047;SDS011;56119;50.118;8.642;2023-08-30T01:05:24;5.03;;;4.25;;
69047;SDS011;56119;50.118;8.642;2023-08-30T01:07:50;5.35;;;4.15;;
69047;SDS011;56119;50.118;8.642;2023-08-30T01:10:17;5.70;;;4.25;;
69047;SDS011;56119;50.118;8.642;2023-08-30T01:12:45;5.70;;;4.28;;
69047;SDS011;56119;50.118;8.642;2023-08-30T01:15:15;8.10;;;4.78;;
69047;SDS011;56119;50.118;8.642;2023-08-30T01:17:44;4.75;;;4.25;;
69047;SDS011;56119;50.118;8.642;2023-08-30T01:20:10;5.05;;;3.97;;
69047;SDS011;56119;50.118;8.642;2023-08-30T01:27:54;5.93;;;4.57;;
69047;SDS011;56119;50.118;8.642;2023-08-30T01:30:20;5.07;;;4.13;;
69047;SDS011;56119;50.118;8.642;2023-08-30T01:32:47;5.82;;;4.70;;
69047;SDS011;56119;50.118;8.642;2023-08-30T01:35:14;6.38;;;4.78;;
69047;SDS011;56119;50.118;8.642;2023-08-30T01:37:43;5.13;;;3.92;;
69047;SDS011;56119;50.118;8.642;2023-08-30T01:40:09;6.20;;;4.65;;
69047;SDS011;56119;50.118;8.642;2023-08-30T01:42:37;6.68;;;4.30;;
69047;SDS011;56119;50.118;8.642;2023-08-30T01:45:04;6.80;;;4.30;;
69047;SDS011;56119;50.118;8.642;2023-08-30T01:47:33;6.93;;;4.53;;
69047;SDS011;56119;50.118;8.642;2023-08-30T01:49:59;5.35;;;4.40;;
69047;SDS011;56119;50.118;8.642;2023-08-30T01:52:25;7.60;;;4.70;;
69047;SDS011;56119;50.118;8.642;2023-08-30T01:54:51;5.80;;;4.30;;
69047;SDS011;56119;50.118;8.642;2023-08-30T01:57:21;5.85;;;4.60;;
69047;SDS011;56119;50.118;8.642;2023-08-30T01:59:47;5.50;;;4.45;;
69047;SDS011;56119;50.118;8.642;2023-08-30T02:02:13;7.07;;;4.53;;
69047;SDS011;56119;50.118;8.642;2023-08-30T02:04:39;6.32;;;4.80;;
69047;SDS011;56119;50.118;8.642;2023-08-30T02:07:08;5.50;;;4.18;;
69047;SDS011;56119;50.118;8.642;2023-08-30T02:09:42;7.38;;;4.63;;
69047;SDS011;56119;50.118;8.642;2023-08-30T02:12:13;4.90;;;3.95;;
69047;SDS011;56119;50.118;8.642;2023-08-30T02:14:41;6.10;;;4.95;;
69047;SDS011;56119;50.118;8.642;2023-08-30T02:17:11;5.30;;;4.55;;
69047;SDS011;56119;50.118;8.642;2023-08-30T02:19:37;4.93;;;4.05;;
69047;SDS011;56119;50.118;8.642;2023-08-30T02:22:03;4.97;;;4.47;;
69047;SDS011;56119;50.118;8.642;2023-08-30T02:24:29;5.97;;;4.47;;
69047;SDS011;56119;50.118;8.642;2023-08-30T02:26:55;5.95;;;4.68;;
69047;SDS011;56119;50.118;8.642;2023-08-30T02:29:21;5.32;;;4.22;;
69047;SDS011;56119;50.118;8.642;2023-08-30T02:31:47;4.57;;;4.10;;
69047;SDS011;56119;50.118;8.642;2023-08-30T02:34:13;5.38;;;4.38;;
69047;SDS011;56119;50.118;8.642;2023-08-30T02:36:39;6.28;;;4.60;;
69047;SDS011;56119;50.118;8.642;2023-08-30T02:39:05;6.22;;;3.97;;
69047;SDS011;56119;50.118;8.642;2023-08-30T02:41:31;5.35;;;4.35;;
69047;SDS011;56119;50.118;8.642;2023-08-30T02:43:57;6.05;;;4.50;;
69047;SDS011;56119;50.118;8.642;2023-08-30T02:46:23;5.72;;;4.25;;
69047;SDS011;56119;50.118;8.642;2023-08-30T02:48:49;6.07;;;4.53;;
69047;SDS011;56119;50.118;8.642;2023-08-30T02:51:15;5.40;;;4.40;;
69047;SDS011;56119;50.118;8.642;2023-08-30T02:53:42;5.30;;;4.22;;
69047;SDS011;56119;50.118;8.642;2023-08-30T02:56:08;5.90;;;3.85;;
69047;SDS011;56119;50.118;8.642;2023-08-30T02:58:34;5.85;;;4.45;;
69047;SDS011;56119;50.118;8.642;2023-08-30T03:01:00;6.03;;;4.38;;
69047;SDS011;56119;50.118;8.642;2023-08-30T03:03:27;8.32;;;5.28;;
69047;SDS011;56119;50.118;8.642;2023-08-30T03:05:53;5.40;;;4.68;;
69047;SDS011;56119;50.118;8.642;2023-08-30T03:08:19;7.25;;;5.03;;
69047;SDS011;56119;50.118;8.642;2023-08-30T03:10:45;5.35;;;4.47;;
69047;SDS011;56119;50.118;8.642;2023-08-30T03:13:11;5.30;;;4.55;;
69047;SDS011;56119;50.118;8.642;2023-08-30T03:15:37;6.95;;;4.65;;
69047;SDS011;56119;50.118;8.642;2023-08-30T03:18:03;6.20;;;4.80;;
69047;SDS011;56119;50.118;8.642;2023-08-30T03:20:29;8.32;;;4.72;;
69047;SDS011;56119;50.118;8.642;2023-08-30T03:22:55;5.80;;;4.80;;
69047;SDS011;56119;50.118;8.642;2023-08-30T03:25:23;8.15;;;5.20;;
69047;SDS011;56119;50.118;8.642;2023-08-30T03:27:49;6.00;;;5.05;;
69047;SDS011;56119;50.118;8.642;2023-08-30T03:30:15;6.88;;;5.93;;
69047;SDS011;56119;50.118;8.642;2023-08-30T03:32:41;8.02;;;4.88;;
69047;SDS011;56119;50.118;8.642;2023-08-30T03:35:07;6.15;;;4.90;;
69047;SDS011;56119;50.118;8.642;2023-08-30T03:37:33;5.03;;;4.20;;
69047;SDS011;56119;50.118;8.642;2023-08-30T03:39:59;6.10;;;4.60;;
69047;SDS011;56119;50.118;8.642;2023-08-30T03:42:25;6.55;;;3.97;;
69047;SDS011;56119;50.118;8.642;2023-08-30T03:44:51;5.35;;;4.70;;
69047;SDS011;56119;50.118;8.642;2023-08-30T03:47:17;5.13;;;4.00;;
69047;SDS011;56119;50.118;8.642;2023-08-30T03:49:43;7.40;;;4.20;;
69047;SDS011;56119;50.118;8.642;2023-08-30T03:52:10;6.60;;;4.80;;
69047;SDS011;56119;50.118;8.642;2023-08-30T03:54:35;6.10;;;4.20;;
69047;SDS011;56119;50.118;8.642;2023-08-30T03:57:01;5.40;;;4.65;;
69047;SDS011;56119;50.118;8.642;2023-08-30T03:59:27;4.60;;;4.20;;
69047;SDS011;56119;50.118;8.642;2023-08-30T04:01:54;5.13;;;4.57;;
69047;SDS011;56119;50.118;8.642;2023-08-30T04:04:20;7.22;;;4.47;;
69047;SDS011;56119;50.118;8.642;2023-08-30T04:06:46;5.70;;;4.47;;
69047;SDS011;56119;50.118;8.642;2023-08-30T04:09:12;6.55;;;4.30;;
69047;SDS011;56119;50.118;8.642;2023-08-30T04:11:38;5.10;;;4.60;;
69047;SDS011;56119;50.118;8.642;2023-08-30T04:14:04;7.38;;;4.97;;
69047;SDS011;56119;50.118;8.642;2023-08-30T04:16:30;6.07;;;5.22;;
69047;SDS011;56119;50.118;8.642;2023-08-30T04:18:56;8.57;;;4.97;;
69047;SDS011;56119;50.118;8.642;2023-08-30T04:21:22;7.18;;;5.43;;
69047;SDS011;56119;50.118;8.642;2023-08-30T04:23:48;8.10;;;4.88;;
69047;SDS011;56119;50.118;8.642;2023-08-30T04:26:14;6.93;;;5.05;;
69047;SDS011;56119;50.118;8.642;2023-08-30T04:28:40;6.93;;;4.85;;
69047;SDS011;56119;50.118;8.642;2023-08-30T04:31:06;6.45;;;5.75;;
69047;SDS011;56119;50.118;8.642;2023-08-30T04:33:32;5.68;;;5.05;;
69047;SDS011;56119;50.118;8.642;2023-08-30T04:35:58;6.50;;;5.28;;
69047;SDS011;56119;50.118;8.642;2023-08-30T04:38:25;6.97;;;5.30;;
69047;SDS011;56119;50.118;8.642;2023-08-30T04:40:56;6.88;;;5.97;;
69047;SDS011;56119;50.118;8.642;2023-08-30T04:43:23;7.68;;;5.65;;
69047;SDS011;56119;50.118;8.642;2023-08-30T04:45:49;7.07;;;6.15;;
69047;SDS011;56119;50.118;8.642;2023-08-30T04:48:15;7.28;;;5.72;;
69047;SDS011;56119;50.118;8.642;2023-08-30T04:50:41;8.95;;;6.30;;
69047;SDS011;56119;50.118;8.642;2023-08-30T04:53:07;8.32;;;5.78;;
69047;SDS011;56119;50.118;8.642;2023-08-30T04:55:33;9.68;;;6.80;;
69047;SDS011;56119;50.118;8.642;2023-08-30T04:57:59;8.50;;;5.82;;
69047;SDS011;56119;50.118;8.642;2023-08-30T05:00:25;8.63;;;6.10;;
69047;SDS011;56119;50.118;8.642;2023-08-30T05:02:51;6.45;;;5.65;;
69047;SDS011;56119;50.118;8.642;2023-08-30T05:05:17;6.93;;;6.22;;
69047;SDS011;56119;50.118;8.642;2023-08-30T05:07:43;6.97;;;5.53;;
69047;SDS011;56119;50.118;8.642;2023-08-30T05:10:09;7.72;;;6.20;;
69047;SDS011;56119;50.118;8.642;2023-08-30T05:12:35;12.73;;;6.18;;
69047;SDS011;56119;50.118;8.642;2023-08-30T05:15:01;10.40;;;6.35;;
69047;SDS011;56119;50.118;8.642;2023-08-30T05:17:29;7.38;;;6.15;;
69047;SDS011;56119;50.118;8.642;2023-08-30T05:19:55;7.75;;;6.38;;
69047;SDS011;56119;50.118;8.642;2023-08-30T05:22:21;7.72;;;6.00;;
69047;SDS011;56119;50.118;8.642;2023-08-30T05:24:47;6.82;;;5.57;;
69047;SDS011;56119;50.118;8.642;2023-08-30T05:27:13;8.43;;;6.68;;
69047;SDS011;56119;50.118;8.642;2023-08-30T05:29:39;12.30;;;7.57;;
69047;SDS011;56119;50.118;8.642;2023-08-30T05:32:05;8.43;;;6.40;;
69047;SDS011;56119;50.118;8.642;2023-08-30T05:34:31;6.72;;;4.40;;
69047;SDS011;56119;50.118;8.642;2023-08-30T05:36:57;6.85;;;5.30;;
69047;SDS011;56119;50.118;8.642;2023-08-30T05:39:23;10.05;;;5.65;;
69047;SDS011;56119;50.118;8.642;2023-08-30T05:41:49;9.75;;;5.65;;
69047;SDS011;56119;50.118;8.642;2023-08-30T05:44:15;7.30;;;5.57;;
69047;SDS011;56119;50.118;8.642;2023-08-30T05:46:41;8.63;;;6.32;;
69047;SDS011;56119;50.118;8.642;2023-08-30T05:49:08;8.45;;;7.00;;
69047;SDS011;56119;50.118;8.642;2023-08-30T05:51:34;10.48;;;8.05;;
69047;SDS011;56119;50.118;8.642;2023-08-30T05:54:00;6.88;;;6.18;;
69047;SDS011;56119;50.118;8.642;2023-08-30T05:56:26;9.20;;;6.50;;
69047;SDS011;56119;50.118;8.642;2023-08-30T05:58:52;6.53;;;5.80;;
69047;SDS011;56119;50.118;8.642;2023-08-30T06:01:18;12.05;;;6.45;;
69047;SDS011;56119;50.118;8.642;2023-08-30T06:03:45;9.88;;;7.93;;
69047;SDS011;56119;50.118;8.642;2023-08-30T06:06:11;8.98;;;7.53;;
69047;SDS011;56119;50.118;8.642;2023-08-30T06:08:37;10.18;;;8.00;;
69047;SDS011;56119;50.118;8.642;2023-08-30T06:11:03;11.05;;;8.77;;
69047;SDS011;56119;50.118;8.642;2023-08-30T06:13:29;13.80;;;10.75;;
69047;SDS011;56119;50.118;8.642;2023-08-30T06:15:55;14.73;;;11.20;;
69047;SDS011;56119;50.118;8.642;2023-08-30T06:18:21;11.48;;;10.05;;
69047;SDS011;56119;50.118;8.642;2023-08-30T06:20:47;11.77;;;10.57;;
69047;SDS011;56119;50.118;8.642;2023-08-30T06:23:13;12.63;;;11.15;;
69047;SDS011;56119;50.118;8.642;2023-08-30T06:25:40;14.30;;;11.35;;
69047;SDS011;56119;50.118;8.642;2023-08-30T06:28:06;12.70;;;11.32;;
69047;SDS011;56119;50.118;8.642;2023-08-30T06:30:32;15.50;;;12.35;;
69047;SDS011;56119;50.118;8.642;2023-08-30T06:32:58;15.30;;;11.93;;
69047;SDS011;56119;50.118;8.642;2023-08-30T06:35:25;17.73;;;13.88;;
69047;SDS011;56119;50.118;8.642;2023-08-30T06:37:51;14.68;;;11.65;;
69047;SDS011;56119;50.118;8.642;2023-08-30T06:40:17;14.77;;;11.63;;
69047;SDS011;56119;50.118;8.642;2023-08-30T06:42:43;17.50;;;14.75;;
69047;SDS011;56119;50.118;8.642;2023-08-30T06:45:10;17.30;;;15.35;;
69047;SDS011;56119;50.118;8.642;2023-08-30T06:47:36;14.45;;;12.43;;
69047;SDS011;56119;50.118;8.642;2023-08-30T06:50:02;18.98;;;14.45;;
69047;SDS011;56119;50.118;8.642;2023-08-30T06:52:29;16.92;;;13.02;;
69047;SDS011;56119;50.118;8.642;2023-08-30T06:54:54;20.17;;;13.80;;
69047;SDS011;56119;50.118;8.642;2023-08-30T06:57:20;16.60;;;12.27;;
69047;SDS011;56119;50.118;8.642;2023-08-30T06:59:46;15.20;;;12.93;;
69047;SDS011;56119;50.118;8.642;2023-08-30T07:02:12;13.70;;;12.10;;
69047;SDS011;56119;50.118;8.642;2023-08-30T07:04:39;14.90;;;12.20;;
69047;SDS011;56119;50.118;8.642;2023-08-30T07:07:05;13.38;;;10.88;;
69047;SDS011;56119;50.118;8.642;2023-08-30T07:09:31;16.25;;;11.40;;
69047;SDS011;56119;50.118;8.642;2023-08-30T07:11:58;15.55;;;13.95;;
69047;SDS011;56119;50.118;8.642;2023-08-30T07:14:24;16.15;;;14.45;;
69047;SDS011;56119;50.118;8.642;2023-08-30T07:16:51;16.08;;;14.38;;
69047;SDS011;56119;50.118;8.642;2023-08-30T07:19:17;17.85;;;15.70;;
69047;SDS011;56119;50.118;8.642;2023-08-30T07:21:43;26.13;;;23.48;;
69047;SDS011;56119;50.118;8.642;2023-08-30T07:24:09;21.27;;;18.27;;
69047;SDS011;56119;50.118;8.642;2023-08-30T07:26:35;18.30;;;16.30;;
69047;SDS011;56119;50.118;8.642;2023-08-30T07:29:01;20.27;;;16.48;;
69047;SDS011;56119;50.118;8.642;2023-08-30T07:31:30;28.30;;;22.40;;
69047;SDS011;56119;50.118;8.642;2023-08-30T07:33:56;19.45;;;17.38;;
69047;SDS011;56119;50.118;8.642;2023-08-30T07:36:23;19.95;;;17.80;;
69047;SDS011;56119;50.118;8.642;2023-08-30T07:38:49;18.63;;;16.63;;
69047;SDS011;56119;50.118;8.642;2023-08-30T07:41:15;19.23;;;17.17;;
69047;SDS011;56119;50.118;8.642;2023-08-30T07:43:41;19.85;;;17.75;;
69047;SDS011;56119;50.118;8.642;2023-08-30T07:46:07;20.42;;;17.42;;
69047;SDS011;56119;50.118;8.642;2023-08-30T07:48:33;20.92;;;16.95;;
69047;SDS011;56119;50.118;8.642;2023-08-30T07:50:59;18.77;;;16.65;;
69047;SDS011;56119;50.118;8.642;2023-08-30T07:53:25;18.50;;;16.58;;
69047;SDS011;56119;50.118;8.642;2023-08-30T07:55:51;19.23;;;17.23;;
69047;SDS011;56119;50.118;8.642;2023-08-30T07:58:17;17.35;;;15.65;;
69047;SDS011;56119;50.118;8.642;2023-08-30T08:00:43;16.75;;;15.15;;
69047;SDS011;56119;50.118;8.642;2023-08-30T08:03:09;14.75;;;13.23;;
69047;SDS011;56119;50.118;8.642;2023-08-30T08:05:35;15.40;;;13.80;;
69047;SDS011;56119;50.118;8.642;2023-08-30T08:08:02;14.35;;;12.85;;
69047;SDS011;56119;50.118;8.642;2023-08-30T08:10:32;14.57;;;13.18;;
69047;SDS011;56119;50.118;8.642;2023-08-30T08:13:01;14.27;;;12.77;;
69047;SDS011;56119;50.118;8.642;2023-08-30T08:15:29;13.88;;;12.55;;
69047;SDS011;56119;50.118;8.642;2023-08-30T08:17:59;15.88;;;13.65;;
69047;SDS011;56119;50.118;8.642;2023-08-30T08:20:25;15.25;;;13.02;;
69047;SDS011;56119;50.118;8.642;2023-08-30T08:22:51;13.73;;;12.43;;
69047;SDS011;56119;50.118;8.642;2023-08-30T08:25:17;12.88;;;11.57;;
69047;SDS011;56119;50.118;8.642;2023-08-30T08:27:43;13.27;;;11.43;;
69047;SDS011;56119;50.118;8.642;2023-08-30T08:30:09;12.40;;;11.18;;
69047;SDS011;56119;50.118;8.642;2023-08-30T08:32:36;14.55;;;12.68;;
69047;SDS011;56119;50.118;8.642;2023-08-30T08:35:02;13.38;;;11.73;;
69047;SDS011;56119;50.118;8.642;2023-08-30T08:37:28;12.65;;;11.32;;
69047;SDS011;56119;50.118;8.642;2023-08-30T08:39:54;13.63;;;12.23;;
69047;SDS011;56119;50.118;8.642;2023-08-30T08:42:20;11.85;;;10.65;;
69047;SDS011;56119;50.118;8.642;2023-08-30T08:44:46;11.55;;;9.68;;
69047;SDS011;56119;50.118;8.642;2023-08-30T08:47:14;11.23;;;10.18;;
69047;SDS011;56119;50.118;8.642;2023-08-30T08:49:40;10.65;;;9.18;;
69047;SDS011;56119;50.118;8.642;2023-08-30T08:52:07;11.88;;;9.93;;
69047;SDS011;56119;50.118;8.642;2023-08-30T08:54:33;11.63;;;10.43;;
69047;SDS011;56119;50.118;8.642;2023-08-30T08:56:59;13.13;;;10.95;;
69047;SDS011;56119;50.118;8.642;2023-08-30T08:59:25;12.45;;;10.75;;
69047;SDS011;56119;50.118;8.642;2023-08-30T09:01:51;13.10;;;11.68;;
69047;SDS011;56119;50.118;8.642;2023-08-30T09:04:17;11.90;;;9.35;;
69047;SDS011;56119;50.118;8.642;2023-08-30T09:06:44;10.57;;;9.57;;
69047;SDS011;56119;50.118;8.642;2023-08-30T09:09:10;10.93;;;9.90;;
69047;SDS011;56119;50.118;8.642;2023-08-30T09:11:36;9.18;;;8.20;;
69047;SDS011;56119;50.118;8.642;2023-08-30T09:14:02;10.40;;;9.07;;
69047;SDS011;56119;50.118;8.642;2023-08-30T09:16:28;11.38;;;9.65;;
69047;SDS011;56119;50.118;8.642;2023-08-30T09:19:01;11.40;;;10.15;;
69047;SDS011;56119;50.118;8.642;2023-08-30T09:21:28;8.50;;;7.60;;
69047;SDS011;56119;50.118;8.642;2023-08-30T09:24:00;10.05;;;7.93;;
69047;SDS011;56119;50.118;8.642;2023-08-30T09:26:28;12.77;;;9.07;;
69047;SDS011;56119;50.118;8.642;2023-08-30T09:28:56;11.45;;;9.15;;
69047;SDS011;56119;50.118;8.642;2023-08-30T09:31:32;10.48;;;8.82;;
69047;SDS011;56119;50.118;8.642;2023-08-30T09:33:58;10.55;;;8.80;;
69047;SDS011;56119;50.118;8.642;2023-08-30T09:36:24;8.80;;;7.25;;
69047;SDS011;56119;50.118;8.642;2023-08-30T09:38:50;10.15;;;8.40;;
69047;SDS011;56119;50.118;8.642;2023-08-30T09:41:17;8.88;;;7.20;;
69047;SDS011;56119;50.118;8.642;2023-08-30T09:43:43;9.93;;;7.65;;
69047;SDS011;56119;50.118;8.642;2023-08-30T09:46:11;8.77;;;7.22;;
69047;SDS011;56119;50.118;8.642;2023-08-30T09:48:37;11.23;;;8.40;;
69047;SDS011;56119;50.118;8.642;2023-08-30T09:51:05;9.40;;;7.28;;
69047;SDS011;56119;50.118;8.642;2023-08-30T09:53:32;10.43;;;7.07;;
69047;SDS011;56119;50.118;8.642;2023-08-30T09:56:02;9.50;;;6.90;;
69047;SDS011;56119;50.118;8.642;2023-08-30T09:58:28;9.15;;;7.03;;
69047;SDS011;56119;50.118;8.642;2023-08-30T10:00:55;8.10;;;6.60;;
69047;SDS011;56119;50.118;8.642;2023-08-30T10:03:21;9.15;;;6.82;;
69047;SDS011;56119;50.118;8.642;2023-08-30T10:05:48;9.15;;;7.07;;
69047;SDS011;56119;50.118;8.642;2023-08-30T10:08:14;6.53;;;5.22;;
69047;SDS011;56119;50.118;8.642;2023-08-30T10:10:40;7.57;;;6.10;;
69047;SDS011;56119;50.118;8.642;2023-08-30T10:13:06;7.05;;;6.35;;
69047;SDS011;56119;50.118;8.642;2023-08-30T10:15:33;8.52;;;7.07;;
69047;SDS011;56119;50.118;8.642;2023-08-30T10:18:01;7.50;;;5.97;;
69047;SDS011;56119;50.118;8.642;2023-08-30T10:20:28;7.65;;;6.15;;
69047;SDS011;56119;50.118;8.642;2023-08-30T10:22:54;6.75;;;6.13;;
69047;SDS011;56119;50.118;8.642;2023-08-30T10:25:21;8.10;;;6.32;;
69047;SDS011;56119;50.118;8.642;2023-08-30T10:27:49;8.55;;;6.50;;
69047;SDS011;56119;50.118;8.642;2023-08-30T10:30:15;8.57;;;6.40;;
69047;SDS011;56119;50.118;8.642;2023-08-30T10:32:42;8.70;;;6.57;;
69047;SDS011;56119;50.118;8.642;2023-08-30T10:35:12;8.50;;;7.50;;
69047;SDS011;56119;50.118;8.642;2023-08-30T10:37:38;7.82;;;5.47;;
69047;SDS011;56119;50.118;8.642;2023-08-30T10:40:05;9.15;;;6.20;;
69047;SDS011;56119;50.118;8.642;2023-08-30T10:42:31;6.93;;;5.65;;
69047;SDS011;56119;50.118;8.642;2023-08-30T10:47:23;5.95;;;5.35;;
69047;SDS011;56119;50.118;8.642;2023-08-30T10:49:54;7.28;;;4.80;;
69047;SDS011;56119;50.118;8.642;2023-08-30T10:52:21;6.55;;;5.13;;
69047;SDS011;56119;50.118;8.642;2023-08-30T10:54:47;6.40;;;5.70;;
69047;SDS011;56119;50.118;8.642;2023-08-30T10:57:14;4.65;;;4.13;;
69047;SDS011;56119;50.118;8.642;2023-08-30T10:59:47;6.72;;;4.25;;
69047;SDS011;56119;50.118;8.642;2023-08-30T11:02:13;5.20;;;4.10;;
69047;SDS011;56119;50.118;8.642;2023-08-30T11:04:39;5.28;;;4.75;;
69047;SDS011;56119;50.118;8.642;2023-08-30T11:07:08;6.68;;;5.10;;
69047;SDS011;56119;50.118;8.642;2023-08-30T11:09:36;6.43;;;4.43;;
69047;SDS011;56119;50.118;8.642;2023-08-30T11:12:04;6.60;;;4.28;;
69047;SDS011;56119;50.118;8.642;2023-08-30T11:14:31;4.65;;;3.50;;
69047;SDS011;56119;50.118;8.642;2023-08-30T11:16:57;4.93;;;4.10;;
69047;SDS011;56119;50.118;8.642;2023-08-30T11:19:23;6.22;;;4.45;;
69047;SDS011;56119;50.118;8.642;2023-08-30T11:21:49;5.82;;;4.22;;
69047;SDS011;56119;50.118;8.642;2023-08-30T11:24:15;7.40;;;4.72;;
69047;SDS011;56119;50.118;8.642;2023-08-30T11:26:41;5.53;;;4.50;;
69047;SDS011;56119;50.118;8.642;2023-08-30T11:29:07;4.32;;;3.70;;
69047;SDS011;56119;50.118;8.642;2023-08-30T11:31:34;4.63;;;3.70;;
69047;SDS011;56119;50.118;8.642;2023-08-30T11:34:00;5.65;;;4.35;;
69047;SDS011;56119;50.118;8.642;2023-08-30T11:36:27;8.40;;;4.50;;
69047;SDS011;56119;50.118;8.642;2023-08-30T11:38:53;6.60;;;4.00;;
69047;SDS011;56119;50.118;8.642;2023-08-30T11:41:20;5.57;;;4.55;;
69047;SDS011;56119;50.118;8.642;2023-08-30T11:43:50;3.97;;;3.20;;
69047;SDS011;56119;50.118;8.642;2023-08-30T11:46:16;4.47;;;4.00;;
69047;SDS011;56119;50.118;8.642;2023-08-30T11:48:43;4.38;;;3.38;;
69047;SDS011;56119;50.118;8.642;2023-08-30T11:51:09;4.95;;;3.50;;
69047;SDS011;56119;50.118;8.642;2023-08-30T11:53:36;6.00;;;3.88;;
69047;SDS011;56119;50.118;8.642;2023-08-30T11:56:02;3.85;;;3.10;;
69047;SDS011;56119;50.118;8.642;2023-08-30T11:58:31;3.80;;;3.35;;
69047;SDS011;56119;50.118;8.642;2023-08-30T12:00:58;4.28;;;3.40;;
69047;SDS011;56119;50.118;8.642;2023-08-30T12:03:26;4.57;;;3.47;;
69047;SDS011;56119;50.118;8.642;2023-08-30T12:05:52;5.55;;;3.28;;
69047;SDS011;56119;50.118;8.642;2023-08-30T12:08:21;3.65;;;2.95;;
69047;SDS011;56119;50.118;8.642;2023-08-30T12:10:48;5.50;;;3.25;;
69047;SDS011;56119;50.118;8.642;2023-08-30T12:13:24;4.72;;;3.78;;
69047;SDS011;56119;50.118;8.642;2023-08-30T12:15:56;6.10;;;3.25;;
69047;SDS011;56119;50.118;8.642;2023-08-30T12:18:23;6.72;;;3.30;;
69047;SDS011;56119;50.118;8.642;2023-08-30T12:21:04;5.22;;;3.67;;
69047;SDS011;56119;50.118;8.642;2023-08-30T12:23:31;4.90;;;3.63;;
69047;SDS011;56119;50.118;8.642;2023-08-30T12:28:23;6.78;;;5.18;;
69047;SDS011;56119;50.118;8.642;2023-08-30T12:30:49;6.93;;;4.95;;
69047;SDS011;56119;50.118;8.642;2023-08-30T12:33:16;7.78;;;5.40;;
69047;SDS011;56119;50.118;8.642;2023-08-30T12:35:42;7.00;;;3.80;;
69047;SDS011;56119;50.118;8.642;2023-08-30T12:38:08;6.20;;;4.03;;
69047;SDS011;56119;50.118;8.642;2023-08-30T12:40:35;9.15;;;3.45;;
69047;SDS011;56119;50.118;8.642;2023-08-30T12:43:01;6.00;;;2.92;;
69047;SDS011;56119;50.118;8.642;2023-08-30T12:45:27;7.22;;;3.45;;
69047;SDS011;56119;50.118;8.642;2023-08-30T12:47:53;4.57;;;3.33;;
69047;SDS011;56119;50.118;8.642;2023-08-30T12:50:19;5.85;;;3.10;;
69047;SDS011;56119;50.118;8.642;2023-08-30T12:52:45;5.40;;;2.63;;
69047;SDS011;56119;50.118;8.642;2023-08-30T12:55:11;7.20;;;3.42;;
69047;SDS011;56119;50.118;8.642;2023-08-30T12:57:37;8.18;;;3.78;;
69047;SDS011;56119;50.118;8.642;2023-08-30T13:00:03;7.53;;;3.28;;
69047;SDS011;56119;50.118;8.642;2023-08-30T13:02:30;6.57;;;3.10;;
69047;SDS011;56119;50.118;8.642;2023-08-30T13:04:56;3.55;;;3.20;;
69047;SDS011;56119;50.118;8.642;2023-08-30T13:07:22;7.28;;;4.15;;
69047;SDS011;56119;50.118;8.642;2023-08-30T13:09:49;4.22;;;3.60;;
69047;SDS011;56119;50.118;8.642;2023-08-30T13:12:15;7.35;;;3.78;;
69047;SDS011;56119;50.118;8.642;2023-08-30T13:14:41;6.13;;;2.50;;
69047;SDS011;56119;50.118;8.642;2023-08-30T13:17:07;4.50;;;3.25;;
69047;SDS011;56119;50.118;8.642;2023-08-30T13:19:33;4.38;;;3.05;;
69047;SDS011;56119;50.118;8.642;2023-08-30T13:21:59;6.60;;;4.03;;
69047;SDS011;56119;50.118;8.642;2023-08-30T13:24:25;4.78;;;2.95;;
69047;SDS011;56119;50.118;8.642;2023-08-30T13:26:51;4.88;;;3.20;;
69047;SDS011;56119;50.118;8.642;2023-08-30T13:29:17;4.70;;;3.17;;
69047;SDS011;56119;50.118;8.642;2023-08-30T13:31:43;5.68;;;3.28;;
69047;SDS011;56119;50.118;8.642;2023-08-30T13:34:09;4.40;;;3.50;;
69047;SDS011;56119;50.118;8.642;2023-08-30T13:36:35;6.13;;;3.55;;
69047;SDS011;56119;50.118;8.642;2023-08-30T13:39:01;5.53;;;3.70;;
69047;SDS011;56119;50.118;8.642;2023-08-30T13:41:27;4.28;;;3.20;;
69047;SDS011;56119;50.118;8.642;2023-08-30T13:43:53;6.65;;;3.97;;
69047;SDS011;56119;50.118;8.642;2023-08-30T13:46:19;8.13;;;4.32;;
69047;SDS011;56119;50.118;8.642;2023-08-30T13:48:45;4.57;;;3.75;;
69047;SDS011;56119;50.118;8.642;2023-08-30T13:51:12;5.22;;;3.90;;
69047;SDS011;56119;50.118;8.642;2023-08-30T13:53:38;7.50;;;4.60;;
69047;SDS011;56119;50.118;8.642;2023-08-30T13:56:04;4.38;;;3.60;;
69047;SDS011;56119;50.118;8.642;2023-08-30T13:58:30;7.05;;;3.50;;
69047;SDS011;56119;50.118;8.642;2023-08-30T14:00:56;5.43;;;4.05;;
69047;SDS011;56119;50.118;8.642;2023-08-30T14:03:22;6.72;;;3.47;;
69047;SDS011;56119;50.118;8.642;2023-08-30T14:05:48;4.45;;;3.30;;
69047;SDS011;56119;50.118;8.642;2023-08-30T14:08:14;5.82;;;3.95;;
69047;SDS011;56119;50.118;8.642;2023-08-30T14:10:41;4.65;;;3.33;;
69047;SDS011;56119;50.118;8.642;2023-08-30T14:13:07;7.00;;;4.15;;
69047;SDS011;56119;50.118;8.642;2023-08-30T14:15:33;6.07;;;3.25;;
69047;SDS011;56119;50.118;8.642;2023-08-30T14:17:59;5.63;;;3.72;;
69047;SDS011;56119;50.118;8.642;2023-08-30T14:20:25;5.88;;;3.75;;
69047;SDS011;56119;50.118;8.642;2023-08-30T14:22:51;6.82;;;3.88;;
69047;SDS011;56119;50.118;8.642;2023-08-30T14:25:17;7.45;;;4.25;;
69047;SDS011;56119;50.118;8.642;2023-08-30T14:27:42;4.85;;;3.80;;
69047;SDS011;56119;50.118;8.642;2023-08-30T14:30:09;5.35;;;4.35;;
69047;SDS011;56119;50.118;8.642;2023-08-30T14:32:35;5.65;;;3.40;;
69047;SDS011;56119;50.118;8.642;2023-08-30T14:35:02;7.20;;;4.22;;
69047;SDS011;56119;50.118;8.642;2023-08-30T14:37:28;5.45;;;4.00;;
69047;SDS011;56119;50.118;8.642;2023-08-30T14:39:54;5.85;;;4.13;;
69047;SDS011;56119;50.118;8.642;2023-08-30T14:42:20;5.50;;;4.38;;
69047;SDS011;56119;50.118;8.642;2023-08-30T14:44:50;7.15;;;3.95;;
69047;SDS011;56119;50.118;8.642;2023-08-30T14:47:16;5.05;;;3.67;;